Time;durP1;ratioP1;P1;durP2;ratioP2;P2;SDS_P1;SDS_P2;PMS_P1;PMS_P2;Temp;Humidity;BMP_temperature;BMP_pressure;BME280_temperature;BME280_humidity;BME280_pressure;Samples;Min_cycle;Max_cycle;Signal;HPM_P1;HPM_P2
2023/06/25 00:02:05;;;;;;;18.55;16.88;;;17.40;99.90;;;;;;6273136;22;20325;-74
2023/06/25 00:04:31;;;;;;;18.73;17.02;;;17.40;99.90;;;;;;6273310;22;20039;-75
2023/06/25 00:06:57;;;;;;;18.98;17.02;;;17.30;99.90;;;;;;6272478;22;20084;-75
2023/06/25 00:09:22;;;;;;;17.83;16.33;;;17.30;99.90;;;;;;6272531;22;20351;-75
2023/06/25 00:11:48;;;;;;;18.55;17.05;;;17.30;99.90;;;;;;6273120;22;20022;-74
2023/06/25 00:14:13;;;;;;;19.25;17.60;;;17.30;99.90;;;;;;6272786;22;20004;-74
2023/06/25 00:16:39;;;;;;;18.88;17.25;;;17.30;99.90;;;;;;6271946;22;20054;-74
2023/06/25 00:19:04;;;;;;;18.30;16.60;;;17.30;99.90;;;;;;6273186;22;20027;-75
2023/06/25 00:21:30;;;;;;;18.58;16.88;;;17.20;99.90;;;;;;6272894;22;20047;-75
2023/06/25 00:23:56;;;;;;;18.80;17.20;;;17.30;99.90;;;;;;6273213;22;20043;-75
2023/06/25 00:26:22;;;;;;;18.23;16.65;;;17.20;99.90;;;;;;6271236;22;20019;-74
2023/06/25 00:28:47;;;;;;;18.65;17.05;;;17.20;99.90;;;;;;6271127;22;20019;-74
2023/06/25 00:31:13;;;;;;;19.60;17.60;;;17.10;99.90;;;;;;6273139;22;20011;-74
2023/06/25 00:33:41;;;;;;;20.17;18.45;;;17.10;99.90;;;;;;6272731;22;20008;-74
2023/06/25 00:36:06;;;;;;;18.92;17.33;;;17.20;99.90;;;;;;6272536;22;20360;-74
2023/06/25 00:38:39;;;;;;;18.55;17.05;;;17.20;99.90;;;;;;6272507;22;20467;-75
2023/06/25 00:41:09;;;;;;;;;;;17.30;99.90;;;;;;6273330;22;20043;-75
2023/06/25 00:43:37;;;;;;;19.55;17.85;;;17.30;99.90;;;;;;6247618;22;19918;-75
2023/06/25 00:46:02;;;;;;;20.67;18.67;;;17.30;99.90;;;;;;6271444;22;20022;-75
2023/06/25 00:48:28;;;;;;;18.52;16.92;;;17.30;99.90;;;;;;6222231;22;20012;-74
2023/06/25 00:51:00;;;;;;;18.83;17.15;;;17.20;99.90;;;;;;6273136;22;20031;-74
2023/06/25 00:53:29;;;;;;;18.60;17.00;;;17.20;99.90;;;;;;6272978;22;20444;-74
2023/06/25 00:55:55;;;;;;;19.60;17.75;;;17.20;99.90;;;;;;6272351;22;20345;-75
2023/06/25 00:58:20;;;;;;;19.50;17.75;;;17.20;99.90;;;;;;6273399;22;20015;-74
2023/06/25 01:00:47;;;;;;;19.25;17.58;;;17.20;99.90;;;;;;6272723;22;20011;-75
2023/06/25 01:03:26;;;;;;;20.00;18.33;;;17.20;99.90;;;;;;6272196;22;20018;-75
2023/06/25 01:06:08;;;;;;;19.05;17.45;;;17.30;99.90;;;;;;6271892;22;20016;-75
2023/06/25 01:08:36;;;;;;;19.52;17.92;;;17.30;99.90;;;;;;6272948;22;20340;-74
2023/06/25 01:11:03;;;;;;;18.67;17.17;;;17.30;99.90;;;;;;6222100;22;20015;-74
2023/06/25 01:13:29;;;;;;;18.83;17.23;;;17.30;99.90;;;;;;6272946;22;20178;-74
2023/06/25 01:15:55;;;;;;;19.88;18.08;;;17.40;99.90;;;;;;6272124;22;20008;-74
2023/06/25 01:18:22;;;;;;;20.23;18.25;;;17.40;99.90;;;;;;6272519;22;20007;-75
2023/06/25 01:20:52;;;;;;;19.42;17.73;;;17.40;99.90;;;;;;6274273;22;20027;-74
2023/06/25 01:23:21;;;;;;;19.73;17.85;;;17.50;99.90;;;;;;6223424;22;20016;-74
2023/06/25 01:25:48;;;;;;;19.38;17.73;;;17.50;99.90;;;;;;6274485;22;20011;-74
2023/06/25 01:28:14;;;;;;;18.52;16.73;;;17.50;99.90;;;;;;6274399;22;20019;-74
2023/06/25 01:30:40;;;;;;;19.55;17.75;;;17.50;99.90;;;;;;6274477;22;20012;-74
2023/06/25 01:33:05;;;;;;;19.95;18.05;;;17.40;99.90;;;;;;6273963;22;20325;-74
2023/06/25 01:35:31;;;;;;;20.00;18.30;;;17.50;99.90;;;;;;6274566;22;20082;-75
2023/06/25 01:37:58;;;;;;;19.63;17.92;;;17.40;99.90;;;;;;6274205;22;20062;-74
2023/06/25 01:40:23;;;;;;;20.95;19.02;;;17.40;99.90;;;;;;6223418;22;20007;-74
2023/06/25 01:42:49;;;;;;;19.98;18.27;;;17.40;99.90;;;;;;6273752;22;20012;-74
2023/06/25 01:45:15;;;;;;;20.52;18.75;;;17.40;99.90;;;;;;6273510;22;20022;-74
2023/06/25 01:47:41;;;;;;;19.63;17.98;;;17.30;99.90;;;;;;6274111;22;20004;-74
2023/06/25 01:50:08;;;;;;;21.55;19.65;;;17.30;99.90;;;;;;6274493;22;20007;-74
2023/06/25 01:52:34;;;;;;;21.50;19.60;;;17.20;99.90;;;;;;6274333;22;20026;-74
2023/06/25 01:55:00;;;;;;;21.98;19.95;;;17.30;99.90;;;;;;6274124;22;20399;-74
2023/06/25 01:57:25;;;;;;;21.77;19.88;;;17.20;99.90;;;;;;6273654;22;20082;-74
2023/06/25 01:59:51;;;;;;;22.73;20.50;;;17.10;99.90;;;;;;6274087;22;20026;-75
2023/06/25 02:02:17;;;;;;;22.33;20.23;;;17.00;99.90;;;;;;6273311;22;20236;-74
2023/06/25 02:04:42;;;;;;;23.00;20.90;;;17.00;99.90;;;;;;6223231;22;20399;-74
2023/06/25 02:07:08;;;;;;;23.27;21.15;;;17.00;99.90;;;;;;6274016;22;20008;-74
2023/06/25 02:09:34;;;;;;;21.98;19.98;;;16.90;99.90;;;;;;6273707;22;20016;-74
2023/06/25 02:12:00;;;;;;;24.30;21.98;;;16.90;99.90;;;;;;6247905;22;20070;-74
2023/06/25 02:14:25;;;;;;;21.23;19.33;;;16.80;99.90;;;;;;6273801;22;20003;-74
2023/06/25 02:16:51;;;;;;;24.58;22.38;;;16.80;99.90;;;;;;6273976;22;20008;-74
2023/06/25 02:19:16;;;;;;;24.35;22.05;;;16.70;99.90;;;;;;6274257;22;20016;-74
2023/06/25 02:21:42;;;;;;;25.17;22.85;;;16.70;99.90;;;;;;6274834;22;20325;-74
2023/06/25 02:24:08;;;;;;;26.05;23.45;;;16.70;99.90;;;;;;6273427;22;20098;-74
2023/06/25 02:26:33;;;;;;;24.85;22.52;;;16.80;99.90;;;;;;6273948;22;20017;-74
2023/06/25 02:28:59;;;;;;;25.30;22.88;;;16.80;99.90;;;;;;6273993;22;20057;-74
2023/06/25 02:31:26;;;;;;;25.92;23.42;;;16.80;99.90;;;;;;6273937;22;20071;-74
2023/06/25 02:33:51;;;;;;;25.13;22.77;;;16.80;99.90;;;;;;6273308;22;20390;-74
2023/06/25 02:36:17;;;;;;;26.52;24.02;;;16.90;99.90;;;;;;6273465;22;20050;-74
2023/06/25 02:38:42;;;;;;;26.45;23.90;;;16.90;99.90;;;;;;6273881;22;20039;-74
2023/06/25 02:41:08;;;;;;;27.48;24.70;;;17.00;99.90;;;;;;6273646;22;20058;-74
2023/06/25 02:43:34;;;;;;;27.85;25.15;;;17.00;99.90;;;;;;6223275;22;20019;-74
2023/06/25 02:45:59;;;;;;;27.83;25.17;;;17.00;99.90;;;;;;6273661;22;20509;-74
2023/06/25 02:48:25;;;;;;;28.75;25.95;;;17.10;99.90;;;;;;6272247;22;20015;-74
2023/06/25 02:50:50;;;;;;;27.50;24.95;;;17.10;99.90;;;;;;6273407;22;20016;-74
2023/06/25 02:53:16;;;;;;;27.67;25.15;;;17.10;99.90;;;;;;6273819;22;20638;-74
2023/06/25 02:55:41;;;;;;;26.98;24.48;;;17.20;99.90;;;;;;6273863;22;20007;-74
2023/06/25 02:58:07;;;;;;;28.13;25.23;;;17.20;99.90;;;;;;6222543;22;20409;-74
2023/06/25 03:00:32;;;;;;;27.02;24.23;;;17.20;99.90;;;;;;6273749;22;20448;-74
2023/06/25 03:02:58;;;;;;;27.23;24.73;;;17.30;99.90;;;;;;6272899;22;20086;-74
2023/06/25 03:05:24;;;;;;;25.75;23.23;;;17.30;99.90;;;;;;6222448;22;20019;-74
2023/06/25 03:07:49;;;;;;;25.67;23.17;;;17.30;99.90;;;;;;6273032;22;20008;-74
2023/06/25 03:10:15;;;;;;;25.08;22.77;;;17.40;99.90;;;;;;6273536;22;20012;-74
2023/06/25 03:12:40;;;;;;;25.92;23.55;;;17.40;99.90;;;;;;6273410;22;20030;-74
2023/06/25 03:15:07;;;;;;;24.85;22.58;;;17.40;99.90;;;;;;6273544;22;20007;-74
2023/06/25 03:17:32;;;;;;;23.60;21.40;;;17.30;99.90;;;;;;6272445;22;20018;-74
2023/06/25 03:19:58;;;;;;;24.77;22.58;;;17.30;99.90;;;;;;6273633;22;20051;-74
2023/06/25 03:22:23;;;;;;;24.13;21.75;;;17.30;99.90;;;;;;6273536;22;20456;-74
2023/06/25 03:24:49;;;;;;;23.48;21.38;;;17.30;99.90;;;;;;6273731;22;20012;-75
2023/06/25 03:27:14;;;;;;;25.42;23.02;;;17.40;99.90;;;;;;6272544;22;20145;-74
2023/06/25 03:29:40;;;;;;;24.65;22.25;;;17.30;99.90;;;;;;6273168;22;20340;-74
2023/06/25 03:32:06;;;;;;;24.90;22.60;;;17.30;99.90;;;;;;6273018;22;20016;-74
2023/06/25 03:34:31;;;;;;;25.27;22.75;;;17.30;99.90;;;;;;6273600;22;20014;-74
2023/06/25 03:36:57;;;;;;;25.35;22.92;;;17.30;99.90;;;;;;6272557;22;20054;-74
2023/06/25 03:39:23;;;;;;;25.27;22.88;;;17.30;99.90;;;;;;6272643;22;20452;-74
2023/06/25 03:41:49;;;;;;;26.15;23.75;;;17.30;99.90;;;;;;6273080;22;20012;-74
2023/06/25 03:44:14;;;;;;;25.33;22.92;;;17.30;99.90;;;;;;6273052;22;20069;-74
2023/06/25 03:46:40;;;;;;;26.00;23.15;;;17.30;99.90;;;;;;6272745;22;20015;-74
2023/06/25 03:49:05;;;;;;;27.20;24.75;;;17.20;99.90;;;;;;6271918;22;20008;-74
2023/06/25 03:51:31;;;;;;;24.95;22.67;;;17.30;99.90;;;;;;6273010;22;20026;-74
2023/06/25 03:53:56;;;;;;;25.65;23.35;;;17.30;99.90;;;;;;6273512;22;20022;-74
2023/06/25 03:56:22;;;;;;;26.38;23.85;;;17.30;99.90;;;;;;6272773;22;20078;-74
2023/06/25 03:58:48;;;;;;;26.50;24.10;;;17.30;99.90;;;;;;6272804;22;20068;-74
2023/06/25 04:01:13;;;;;;;25.77;23.35;;;17.30;99.90;;;;;;6273223;22;20079;-74
2023/06/25 04:03:39;;;;;;;26.17;23.58;;;17.30;99.90;;;;;;6222257;22;20012;-74
2023/06/25 04:06:05;;;;;;;26.13;23.73;;;17.30;99.90;;;;;;6272871;22;20018;-74
2023/06/25 04:08:30;;;;;;;26.42;23.92;;;17.30;99.90;;;;;;6272749;22;20034;-74
2023/06/25 04:10:56;;;;;;;26.10;23.65;;;17.30;99.90;;;;;;6273241;22;20061;-74
2023/06/25 04:13:21;;;;;;;25.95;23.52;;;17.30;99.90;;;;;;6271769;22;20035;-74
2023/06/25 04:15:47;;;;;;;25.98;23.58;;;17.30;99.90;;;;;;6272525;22;20019;-74
2023/06/25 04:18:12;;;;;;;25.75;23.35;;;17.40;99.90;;;;;;6272798;22;20475;-74
2023/06/25 04:20:38;;;;;;;26.65;24.25;;;17.40;99.90;;;;;;6222336;22;20019;-74
2023/06/25 04:23:04;;;;;;;24.45;22.15;;;17.40;99.90;;;;;;6273183;22;20011;-74
2023/06/25 04:25:30;;;;;;;25.02;22.83;;;17.50;99.90;;;;;;6272721;22;20004;-74
2023/06/25 04:27:56;;;;;;;25.30;22.80;;;17.60;99.90;;;;;;6272077;22;20344;-74
2023/06/25 04:30:22;;;;;;;24.75;22.55;;;17.90;99.90;;;;;;6272900;22;20007;-74
2023/06/25 04:32:49;;;;;;;24.00;21.73;;;18.20;99.90;;;;;;6273060;22;20074;-74
2023/06/25 04:35:16;;;;;;;23.15;21.02;;;18.60;99.90;;;;;;6273139;22;20020;-74
2023/06/25 04:37:42;;;;;;;23.63;21.48;;;19.00;99.90;;;;;;6271896;22;20086;-74
2023/06/25 04:40:08;;;;;;;23.38;21.27;;;19.40;99.90;;;;;;6272426;22;20043;-74
2023/06/25 04:42:33;;;;;;;22.65;20.35;;;19.70;99.90;;;;;;6273281;22;20019;-74
2023/06/25 04:44:59;;;;;;;21.85;19.85;;;20.00;99.90;;;;;;6273160;22;20341;-74
2023/06/25 04:47:24;;;;;;;21.08;19.17;;;20.30;99.90;;;;;;6272260;22;20011;-74
2023/06/25 04:49:50;;;;;;;20.88;19.08;;;20.50;99.90;;;;;;6273050;22;20008;-74
2023/06/25 04:52:19;;;;;;;22.17;20.17;;;20.80;99.90;;;;;;6232842;22;20463;-74
2023/06/25 04:54:45;;;;;;;20.90;19.02;;;21.20;99.90;;;;;;6273954;22;20015;-74
2023/06/25 04:57:12;;;;;;;20.92;19.02;;;21.50;99.90;;;;;;6274144;22;20008;-74
2023/06/25 04:59:37;;;;;;;20.92;19.00;;;21.90;99.90;;;;;;6223773;22;20519;-74
2023/06/25 05:02:03;;;;;;;20.80;19.00;;;22.30;99.90;;;;;;6274275;22;20012;-74
2023/06/25 05:04:29;;;;;;;19.58;17.88;;;22.60;99.90;;;;;;6248739;22;20012;-75
2023/06/25 05:06:55;;;;;;;19.27;17.58;;;23.00;99.90;;;;;;6274676;22;20014;-75
2023/06/25 05:09:21;;;;;;;19.67;17.88;;;23.20;99.90;;;;;;6274803;22;20456;-74
2023/06/25 05:11:46;;;;;;;19.70;17.90;;;23.30;99.90;;;;;;6274243;22;20011;-75
2023/06/25 05:14:12;;;;;;;19.55;17.63;;;23.30;99.90;;;;;;6274917;22;20058;-75
2023/06/25 05:16:37;;;;;;;19.50;17.77;;;23.30;99.90;;;;;;6274216;22;20012;-75
2023/06/25 05:19:04;;;;;;;20.02;18.23;;;23.50;99.90;;;;;;6274405;22;20022;-74
2023/06/25 05:21:29;;;;;;;20.30;18.50;;;23.60;99.90;;;;;;6274278;22;20081;-75
2023/06/25 05:24:03;;;;;;;19.10;17.23;;;23.70;99.90;;;;;;6274752;22;20456;-75
2023/06/25 05:26:29;;;;;;;19.58;17.85;;;23.80;99.90;;;;;;6274151;22;20090;-75
2023/06/25 05:28:55;;;;;;;19.77;17.95;;;23.80;99.90;;;;;;6273973;22;20432;-75
2023/06/25 05:31:20;;;;;;;19.30;17.65;;;24.00;99.90;;;;;;6223441;22;20044;-75
2023/06/25 05:33:46;;;;;;;18.58;16.98;;;24.30;99.90;;;;;;6274440;22;20014;-75
2023/06/25 05:36:15;;;;;;;19.02;17.33;;;24.60;99.90;;;;;;6274474;22;20022;-75
2023/06/25 05:38:41;;;;;;;18.48;16.80;;;24.70;99.90;;;;;;6273888;22;20012;-75
2023/06/25 05:41:07;;;;;;;18.27;16.77;;;24.90;99.90;;;;;;6273676;22;20392;-75
2023/06/25 05:43:33;;;;;;;17.63;16.23;;;25.20;99.90;;;;;;6274144;22;20019;-75
2023/06/25 05:45:58;;;;;;;18.05;16.50;;;25.50;99.90;;;;;;6273757;22;20020;-75
2023/06/25 05:48:25;;;;;;;18.77;16.95;;;25.60;99.90;;;;;;6273952;22;20012;-75
2023/06/25 05:50:51;;;;;;;19.35;17.50;;;25.80;99.90;;;;;;6274097;22;20146;-75
2023/06/25 05:53:18;;;;;;;18.35;16.83;;;25.80;98.90;;;;;;6273902;22;20467;-75
2023/06/25 05:55:44;;;;;;;18.35;16.80;;;25.70;99.70;;;;;;6273702;22;20015;-75
2023/06/25 05:58:09;;;;;;;18.50;16.70;;;25.70;99.80;;;;;;6247914;22;20019;-75
2023/06/25 06:00:35;;;;;;;19.35;17.50;;;25.60;99.70;;;;;;6248225;22;20007;-75
2023/06/25 06:03:01;;;;;;;19.02;17.33;;;25.30;99.90;;;;;;6274287;22;20444;-74
2023/06/25 06:05:26;;;;;;;19.95;18.25;;;24.90;99.90;;;;;;6272974;22;20069;-75
2023/06/25 06:07:52;;;;;;;20.48;18.63;;;24.50;99.90;;;;;;6273469;22;20079;-75
2023/06/25 06:10:18;;;;;;;19.80;18.20;;;24.10;99.90;;;;;;6274133;22;20019;-75
2023/06/25 06:12:43;;;;;;;20.17;18.40;;;23.80;99.90;;;;;;6273340;22;20386;-75
2023/06/25 06:15:09;;;;;;;20.92;19.13;;;23.60;99.90;;;;;;6247738;22;20008;-75
2023/06/25 06:17:35;;;;;;;22.05;20.20;;;23.30;99.90;;;;;;6274051;22;20010;-74
2023/06/25 06:20:01;;;;;;;20.25;18.65;;;23.10;99.90;;;;;;6274407;22;20016;-74
2023/06/25 06:22:26;;;;;;;21.85;19.95;;;23.00;99.90;;;;;;6272876;22;20544;-75
2023/06/25 06:24:52;;;;;;;21.98;20.05;;;22.90;99.90;;;;;;6247235;22;20018;-74
2023/06/25 06:27:17;;;;;;;22.48;20.58;;;22.70;99.90;;;;;;6221343;22;20022;-75
2023/06/25 06:29:43;;;;;;;23.77;21.65;;;22.70;99.90;;;;;;6273472;22;20012;-75
2023/06/25 06:32:09;;;;;;;23.85;21.90;;;22.60;99.90;;;;;;6273648;22;20026;-74
2023/06/25 06:34:35;;;;;;;24.40;22.17;;;22.50;99.90;;;;;;6274025;22;20007;-75
2023/06/25 06:37:01;;;;;;;22.80;21.00;;;22.60;99.90;;;;;;6273422;22;20057;-74
2023/06/25 06:39:27;;;;;;;23.80;21.80;;;22.60;99.90;;;;;;6248463;22;20012;-75
2023/06/25 06:41:52;;;;;;;23.35;21.27;;;22.60;99.90;;;;;;6273009;22;20012;-75
2023/06/25 06:44:19;;;;;;;24.30;22.20;;;22.50;99.90;;;;;;6247305;22;20486;-74
2023/06/25 06:46:45;;;;;;;23.80;21.70;;;22.50;99.90;;;;;;6272606;22;20022;-74
2023/06/25 06:49:11;;;;;;;24.65;22.45;;;22.50;99.90;;;;;;6247720;22;20008;-74
2023/06/25 06:51:37;;;;;;;23.83;21.90;;;22.50;99.90;;;;;;6273687;22;20314;-74
2023/06/25 06:54:06;;;;;;;24.17;22.08;;;22.60;99.90;;;;;;6273557;22;20012;-73
2023/06/25 06:56:33;;;;;;;24.30;22.30;;;22.60;99.90;;;;;;6271879;22;20007;-74
2023/06/25 06:58:58;;;;;;;24.05;21.88;;;22.60;99.90;;;;;;6273222;22;20467;-74
2023/06/25 07:01:25;;;;;;;24.85;22.75;;;22.70;99.90;;;;;;6273415;22;20019;-75
2023/06/25 07:03:51;;;;;;;23.70;21.70;;;22.70;99.90;;;;;;6273873;22;20355;-75
2023/06/25 07:06:16;;;;;;;24.25;22.25;;;22.90;99.90;;;;;;6248095;22;20019;-75
2023/06/25 07:08:42;;;;;;;24.45;22.55;;;23.00;99.90;;;;;;6273543;22;20043;-75
2023/06/25 07:11:07;;;;;;;24.60;22.58;;;23.00;99.90;;;;;;6273123;22;20016;-75
2023/06/25 07:13:33;;;;;;;23.95;21.85;;;23.10;99.90;;;;;;6248207;22;20039;-74
2023/06/25 07:15:59;;;;;;;25.83;23.52;;;23.20;99.90;;;;;;6273132;22;20014;-75
2023/06/25 07:18:24;;;;;;;23.40;21.60;;;23.20;99.90;;;;;;6248183;22;20034;-75
2023/06/25 07:20:50;;;;;;;24.75;22.75;;;23.30;99.90;;;;;;6271928;22;20043;-75
2023/06/25 07:23:16;;;;;;;24.80;22.80;;;23.30;99.90;;;;;;6247908;22;20050;-75
2023/06/25 07:25:43;;;;;;;24.48;22.48;;;23.40;99.90;;;;;;6272552;22;20397;-75
2023/06/25 07:28:09;;;;;;;24.67;22.73;;;23.50;99.90;;;;;;6247301;22;20019;-75
2023/06/25 07:30:36;;;;;;;21.63;19.83;;;23.60;99.90;;;;;;6221705;22;20346;-76
2023/06/25 07:33:03;;;;;;;21.30;19.40;;;23.70;99.90;;;;;;6272832;22;20345;-75
2023/06/25 07:35:28;;;;;;;20.27;18.50;;;23.80;99.90;;;;;;6272918;22;20019;-75
2023/06/25 07:37:54;;;;;;;21.13;19.33;;;23.90;99.90;;;;;;6273125;22;20016;-74
2023/06/25 07:40:20;;;;;;;19.60;17.83;;;24.10;99.90;;;;;;6245669;22;20012;-74
2023/06/25 07:42:45;;;;;;;19.27;17.67;;;24.30;99.90;;;;;;6273513;22;20043;-74
2023/06/25 07:45:11;;;;;;;19.67;18.02;;;24.50;99.90;;;;;;6272396;22;20016;-74
2023/06/25 07:47:37;;;;;;;20.45;18.65;;;24.80;99.90;;;;;;6272898;22;20081;-74
2023/06/25 07:50:03;;;;;;;19.10;17.60;;;25.30;99.90;;;;;;6272827;22;20098;-75
2023/06/25 07:52:28;;;;;;;16.50;15.00;;;26.10;99.90;;;;;;6271675;22;20020;-75
2023/06/25 07:54:54;;;;;;;15.80;14.48;;;27.00;99.90;;;;;;6272821;22;20015;-75
2023/06/25 07:57:19;;;;;;;16.00;14.63;;;27.80;99.90;;;;;;6272974;22;20008;-75
2023/06/25 07:59:45;;;;;;;15.80;14.40;;;28.60;96.40;;;;;;6272813;22;20102;-75
2023/06/25 08:02:11;;;;;;;12.55;11.50;;;29.30;83.50;;;;;;6271704;22;20125;-74
2023/06/25 08:04:37;;;;;;;12.98;11.88;;;29.90;74.40;;;;;;6272981;22;20019;-75
2023/06/25 08:07:03;;;;;;;13.07;11.88;;;30.40;68.20;;;;;;6272695;22;20015;-75
2023/06/25 08:09:28;;;;;;;14.27;13.05;;;30.90;67.20;;;;;;6273150;22;20023;-75
2023/06/25 08:11:54;;;;;;;11.75;10.75;;;31.30;65.10;;;;;;6246486;22;20004;-75
2023/06/25 08:14:20;;;;;;;11.82;10.85;;;31.70;66.70;;;;;;6271810;22;20015;-75
2023/06/25 08:16:45;;;;;;;11.50;10.60;;;32.10;63.30;;;;;;6270591;22;20383;-74
2023/06/25 08:19:11;;;;;;;12.27;11.25;;;32.40;61.80;;;;;;6273137;22;20018;-75
2023/06/25 08:21:36;;;;;;;12.57;11.38;;;32.70;60.10;;;;;;6273241;22;20460;-74
2023/06/25 08:24:02;;;;;;;11.10;10.10;;;32.90;60.10;;;;;;6272669;22;20015;-75
2023/06/25 08:26:28;;;;;;;10.10;9.15;;;33.20;58.20;;;;;;6271695;22;20058;-75
2023/06/25 08:28:53;;;;;;;10.27;9.45;;;33.60;59.20;;;;;;6223485;22;20019;-74
2023/06/25 08:31:19;;;;;;;9.25;8.45;;;33.80;57.70;;;;;;6249750;22;20011;-75
2023/06/25 08:33:44;;;;;;;10.75;9.95;;;34.10;56.30;;;;;;6275233;22;20019;-75
2023/06/25 08:36:10;;;;;;;8.50;7.80;;;34.30;55.00;;;;;;6274542;22;20456;-75
2023/06/25 08:38:36;;;;;;;8.15;7.45;;;34.60;55.30;;;;;;6274585;22;20039;-74
2023/06/25 08:41:02;;;;;;;8.65;7.85;;;34.70;52.70;;;;;;6275130;22;20062;-75
2023/06/25 08:43:28;;;;;;;7.28;6.63;;;34.70;51.20;;;;;;6249792;22;20081;-75
2023/06/25 08:45:54;;;;;;;8.30;7.45;;;34.60;52.80;;;;;;6273317;22;20448;-75
2023/06/25 08:48:21;;;;;;;7.55;6.85;;;34.80;51.60;;;;;;6249519;22;20352;-74
2023/06/25 08:50:58;;;;;;;8.05;7.32;;;35.00;51.60;;;;;;6273846;22;20038;-74
2023/06/25 08:53:25;;;;;;;7.97;7.28;;;35.20;48.80;;;;;;6249495;22;20038;-75
2023/06/25 08:55:53;;;;;;;6.95;4.95;;;35.00;50.40;;;;;;6248888;22;20505;-75
2023/06/25 08:58:21;;;;;;;7.40;6.70;;;34.90;49.50;;;;;;6275067;22;20014;-75
2023/06/25 09:00:46;;;;;;;6.65;6.05;;;34.90;49.30;;;;;;6274786;22;20008;-75
2023/06/25 09:03:12;;;;;;;7.03;6.43;;;35.00;48.90;;;;;;6273394;22;20018;-77
2023/06/25 09:05:37;;;;;;;7.30;5.75;;;35.10;49.60;;;;;;6274226;22;20019;-76
2023/06/25 09:08:04;;;;;;;7.13;6.40;;;35.20;50.40;;;;;;6274571;22;20470;-76
2023/06/25 09:10:31;;;;;;;6.70;6.05;;;35.40;50.50;;;;;;6274905;22;20387;-76
2023/06/25 09:13:00;;;;;;;6.55;5.50;;;35.70;50.00;;;;;;6274758;22;20050;-76
2023/06/25 09:15:26;;;;;;;6.28;5.30;;;35.90;48.90;;;;;;6248443;22;20045;-75
2023/06/25 09:17:56;;;;;;;6.18;5.57;;;35.80;47.20;;;;;;6248819;22;20440;-75
2023/06/25 09:20:24;;;;;;;5.95;5.28;;;35.80;45.80;;;;;;6273224;22;20444;-75
2023/06/25 09:22:56;;;;;;;7.03;5.50;;;35.70;48.30;;;;;;6248022;22;20075;-77
2023/06/25 09:25:28;;;;;;;6.25;5.20;;;36.00;48.60;;;;;;6247774;22;20023;-75
2023/06/25 09:27:55;;;;;;;5.82;5.30;;;36.10;47.00;;;;;;6274207;22;20019;-76
2023/06/25 09:30:24;;;;;;;7.47;5.93;;;36.10;46.50;;;;;;6251014;22;20379;-78
2023/06/25 09:32:54;;;;;;;7.35;5.47;;;36.20;44.50;;;;;;6251409;22;20039;-77
2023/06/25 09:35:25;;;;;;;6.97;5.82;;;36.20;45.30;;;;;;6250947;22;20008;-78
2023/06/25 09:37:51;;;;;;;5.85;5.25;;;36.20;44.00;;;;;;6252495;22;20012;-77
2023/06/25 09:40:21;;;;;;;6.95;6.20;;;36.10;46.10;;;;;;6275624;22;20023;-77
2023/06/25 09:42:53;;;;;;;6.90;5.50;;;35.90;45.00;;;;;;6250906;22;20019;-77
2023/06/25 09:45:21;;;;;;;7.20;6.50;;;35.90;45.50;;;;;;6251329;22;20012;-77
2023/06/25 09:47:49;;;;;;;6.00;5.40;;;36.00;44.10;;;;;;6273774;22;20011;-76
2023/06/25 09:50:18;;;;;;;6.18;5.43;;;36.20;44.80;;;;;;6246312;22;20016;-76
2023/06/25 09:52:57;;;;;;;7.57;5.60;;;36.20;44.20;;;;;;6241866;23;20004;-75
2023/06/25 09:55:24;;;;;;;6.45;5.40;;;36.20;44.20;;;;;;6218517;23;20018;-75
2023/06/25 09:57:51;;;;;;;6.80;5.70;;;36.10;45.00;;;;;;6243095;23;20387;-76
2023/06/25 10:00:19;;;;;;;5.97;5.38;;;36.20;43.90;;;;;;6243265;23;20016;-75
2023/06/25 10:02:45;;;;;;;7.35;5.85;;;36.30;43.80;;;;;;6218312;23;20012;-75
2023/06/25 10:05:11;;;;;;;6.18;5.35;;;36.60;41.40;;;;;;6218386;23;20449;-75
2023/06/25 10:07:38;;;;;;;6.30;5.53;;;36.30;44.40;;;;;;6242113;23;20544;-75
2023/06/25 10:10:03;;;;;;;9.07;5.18;;;36.60;41.50;;;;;;6217964;23;20322;-77
2023/06/25 10:12:35;;;;;;;5.35;4.85;;;36.40;42.50;;;;;;6243349;23;20062;-76
2023/06/25 10:15:02;;;;;;;5.87;5.07;;;35.90;42.50;;;;;;6243275;23;20448;-74
2023/06/25 10:17:28;;;;;;;5.43;4.88;;;35.70;43.30;;;;;;6244213;23;20016;-76
2023/06/25 10:20:00;;;;;;;5.35;4.70;;;35.30;44.40;;;;;;6243121;23;20043;-75
2023/06/25 10:22:27;;;;;;;5.60;5.00;;;35.50;45.00;;;;;;6218085;23;20012;-75
2023/06/25 10:24:54;;;;;;;4.70;4.30;;;35.70;44.80;;;;;;6242607;23;20016;-75
2023/06/25 10:27:26;;;;;;;5.10;4.57;;;35.90;44.30;;;;;;6242884;23;20012;-75
2023/06/25 10:29:53;;;;;;;4.80;4.40;;;35.90;44.20;;;;;;6242722;23;20012;-75
2023/06/25 10:32:20;;;;;;;6.10;4.93;;;35.90;43.40;;;;;;6218082;23;20251;-75
2023/06/25 10:34:52;;;;;;;5.28;4.50;;;36.00;42.90;;;;;;6192385;23;20008;-77
2023/06/25 10:37:18;;;;;;;6.45;4.57;;;36.20;43.70;;;;;;6242260;23;20023;-75
2023/06/25 10:39:43;;;;;;;4.85;4.30;;;36.30;42.50;;;;;;6243474;23;20349;-75
2023/06/25 10:42:09;;;;;;;4.70;4.20;;;36.40;44.30;;;;;;6243302;23;20364;-75
2023/06/25 10:44:35;;;;;;;5.03;4.30;;;36.70;44.40;;;;;;6217599;23;20016;-75
2023/06/25 10:47:10;;;;;;;5.55;4.50;;;36.90;41.90;;;;;;6242148;23;20055;-75
2023/06/25 10:49:37;;;;;;;5.05;4.20;;;36.90;42.40;;;;;;6241559;23;20016;-75
2023/06/25 10:52:03;;;;;;;4.85;4.32;;;37.00;43.00;;;;;;6255372;22;20088;-75
2023/06/25 10:54:31;;;;;;;4.88;4.38;;;37.10;43.00;;;;;;6247541;22;20043;-75
2023/06/25 10:57:11;;;;;;;5.45;4.18;;;37.30;42.00;;;;;;6273489;22;20011;-75
2023/06/25 10:59:38;;;;;;;5.15;4.65;;;37.20;42.80;;;;;;6272842;22;20022;-75
2023/06/25 11:02:16;;;;;;;5.20;4.63;;;37.40;41.90;;;;;;6247025;22;20061;-75
2023/06/25 11:04:42;;;;;;;4.72;4.25;;;37.20;40.60;;;;;;6247137;22;20012;-75
2023/06/25 11:07:11;;;;;;;5.47;4.43;;;37.30;43.10;;;;;;6247457;22;20015;-76
2023/06/25 11:09:37;;;;;;;5.30;4.80;;;37.40;44.10;;;;;;6247500;22;20403;-76
2023/06/25 11:12:06;;;;;;;6.53;4.95;;;37.60;42.10;;;;;;6273541;22;20089;-76
2023/06/25 11:14:32;;;;;;;5.10;4.35;;;37.50;42.80;;;;;;6247544;22;20014;-77
2023/06/25 11:16:58;;;;;;;6.22;4.60;;;37.70;43.00;;;;;;6272866;22;20090;-76
2023/06/25 11:19:25;;;;;;;6.50;5.00;;;38.00;42.30;;;;;;6273167;22;20012;-76
2023/06/25 11:21:51;;;;;;;5.32;4.82;;;37.80;42.00;;;;;;6273522;22;20039;-75
2023/06/25 11:24:16;;;;;;;5.53;5.00;;;37.80;43.30;;;;;;6273165;22;20039;-76
2023/06/25 11:26:43;;;;;;;5.20;4.80;;;37.70;42.80;;;;;;6247800;22;20356;-76
2023/06/25 11:29:09;;;;;;;6.00;5.40;;;37.60;43.40;;;;;;6272502;22;20019;-76
2023/06/25 11:31:48;;;;;;;5.40;4.90;;;37.60;42.40;;;;;;6273317;22;20039;-75
2023/06/25 11:34:24;;;;;;;5.15;4.65;;;37.60;43.10;;;;;;6271791;22;20318;-76
2023/06/25 11:36:49;;;;;;;5.70;5.20;;;37.50;44.30;;;;;;6247360;22;20011;-75
2023/06/25 11:39:15;;;;;;;5.35;4.95;;;37.60;43.20;;;;;;6272403;22;20016;-76
2023/06/25 11:41:42;;;;;;;5.07;4.65;;;37.50;41.80;;;;;;6247496;22;20018;-75
2023/06/25 11:44:17;;;;;;;7.00;5.13;;;37.50;41.70;;;;;;6247232;22;20012;-75
2023/06/25 11:46:50;;;;;;;5.43;4.93;;;37.50;41.30;;;;;;6247755;22;20016;-76
2023/06/25 11:49:17;;;;;;;4.82;4.43;;;37.60;43.40;;;;;;6272061;22;20011;-76
2023/06/25 11:51:42;;;;;;;5.18;4.22;;;37.70;41.80;;;;;;6274558;22;20031;-76
2023/06/25 11:54:08;;;;;;;4.20;3.80;;;37.90;40.80;;;;;;6272930;22;20440;-76
2023/06/25 11:56:34;;;;;;;4.43;4.10;;;38.00;41.60;;;;;;6273103;22;20087;-75
2023/06/25 11:58:59;;;;;;;5.07;4.60;;;38.00;42.70;;;;;;6272868;22;20015;-75
2023/06/25 12:01:25;;;;;;;4.95;4.18;;;37.80;41.20;;;;;;6272911;22;20015;-76
2023/06/25 12:03:51;;;;;;;4.40;4.07;;;37.70;41.40;;;;;;6271190;22;20016;-75
2023/06/25 12:06:16;;;;;;;4.57;4.18;;;37.80;42.40;;;;;;6272872;22;20020;-76
2023/06/25 12:08:42;;;;;;;4.35;3.92;;;37.90;41.60;;;;;;6247420;22;20019;-76
2023/06/25 12:11:07;;;;;;;4.75;4.35;;;38.00;40.80;;;;;;6273190;22;20110;-76
2023/06/25 12:13:33;;;;;;;4.68;4.15;;;38.10;41.30;;;;;;6272535;22;20007;-76
2023/06/25 12:15:59;;;;;;;4.90;4.30;;;38.30;40.60;;;;;;6272785;22;20004;-75
2023/06/25 12:18:24;;;;;;;4.53;4.15;;;38.30;41.20;;;;;;6272597;22;20412;-75
2023/06/25 12:20:50;;;;;;;5.43;4.93;;;38.20;40.40;;;;;;6273260;22;20007;-76
2023/06/25 12:23:15;;;;;;;5.25;4.20;;;38.10;40.10;;;;;;6272529;22;20016;-76
2023/06/25 12:25:41;;;;;;;4.88;4.43;;;38.00;40.70;;;;;;6273587;22;20047;-76
2023/06/25 12:28:06;;;;;;;4.68;4.28;;;37.80;40.30;;;;;;6272922;22;20011;-76
2023/06/25 12:30:32;;;;;;;4.80;4.40;;;37.80;41.30;;;;;;6273215;22;20062;-76